createdAt,value
2023-01-30T00:00:00.766Z,5.3
2023-01-30T00:05:00.854Z,5.3
2023-01-30T00:10:01.220Z,5.4
2023-01-30T00:15:00.701Z,5.4
2023-01-30T00:20:01.074Z,5.4
2023-01-30T00:25:01.626Z,5.5
2023-01-30T00:35:00.686Z,5.5
2023-01-30T00:40:00.686Z,5.6
2023-01-30T00:45:00.601Z,5.6
2023-01-30T00:50:00.606Z,5.7
2023-01-30T00:55:00.882Z,5.8
2023-01-30T01:00:00.666Z,6.0
2023-01-30T01:05:00.640Z,6.1
2023-01-30T01:10:00.585Z,6.1
2023-01-30T01:15:00.660Z,6.2
2023-01-30T01:20:00.610Z,6.4
2023-01-30T01:25:00.581Z,6.5
2023-01-30T01:30:02.375Z,6.5
2023-01-30T01:35:00.587Z,6.6
2023-01-30T01:40:00.639Z,6.6
2023-01-30T01:45:00.590Z,6.8
2023-01-30T01:50:00.760Z,6.8
2023-01-30T01:55:00.707Z,6.8
2023-01-30T02:00:00.632Z,6.8
2023-01-30T02:05:00.675Z,6.9
2023-01-30T02:10:00.680Z,6.8
2023-01-30T02:15:00.684Z,6.8
2023-01-30T02:20:00.691Z,6.8
2023-01-30T02:25:00.855Z,6.8
2023-01-30T02:30:00.687Z,6.8
2023-01-30T02:35:00.606Z,6.8
2023-01-30T02:40:00.587Z,6.8
2023-01-30T02:45:00.754Z,6.8
2023-01-30T02:50:00.800Z,6.8
2023-01-30T02:55:00.621Z,6.8
2023-01-30T03:00:00.595Z,6.8
2023-01-30T03:05:00.610Z,6.8
2023-01-30T03:10:00.740Z,6.8
2023-01-30T03:15:00.605Z,6.8
2023-01-30T03:20:00.609Z,6.8
2023-01-30T03:25:00.584Z,6.8
2023-01-30T03:30:00.604Z,6.9
2023-01-30T03:35:00.596Z,7.0
2023-01-30T03:40:00.583Z,7.0
2023-01-30T03:45:00.722Z,7.1
2023-01-30T03:50:00.581Z,7.1
2023-01-30T03:55:01.327Z,7.2
2023-01-30T04:00:00.774Z,7.1
2023-01-30T04:05:00.587Z,7.2
2023-01-30T04:10:01.263Z,7.2
2023-01-30T04:15:02.514Z,7.2
2023-01-30T04:20:00.583Z,7.2
2023-01-30T04:25:00.588Z,7.2
2023-01-30T04:30:00.581Z,7.2
2023-01-30T04:35:00.586Z,7.2
2023-01-30T04:40:00.815Z,7.3
2023-01-30T04:45:00.597Z,7.3
2023-01-30T04:50:00.632Z,7.3
2023-01-30T04:55:00.585Z,7.4
2023-01-30T05:00:00.611Z,7.4
2023-01-30T05:05:00.590Z,7.4
2023-01-30T05:10:00.639Z,7.4
2023-01-30T05:15:00.590Z,7.4
2023-01-30T05:20:00.875Z,7.4
2023-01-30T05:25:00.593Z,7.4
2023-01-30T05:30:00.613Z,7.4
2023-01-30T05:35:01.104Z,7.5
2023-01-30T05:40:00.597Z,7.4
2023-01-30T05:45:00.674Z,7.4
2023-01-30T05:50:00.580Z,7.2
2023-01-30T05:55:00.624Z,7.1
2023-01-30T06:00:02.465Z,7.0
2023-01-30T06:05:00.653Z,7.0
2023-01-30T06:10:00.715Z,6.9
2023-01-30T06:15:00.641Z,6.9
2023-01-30T06:20:00.591Z,6.8
2023-01-30T06:25:00.667Z,6.7
2023-01-30T06:30:00.685Z,6.5
2023-01-30T06:35:00.912Z,6.5
2023-01-30T06:40:00.611Z,6.4
2023-01-30T06:45:00.664Z,6.3
2023-01-30T06:50:00.582Z,6.3
2023-01-30T06:55:00.827Z,6.2
2023-01-30T07:00:00.873Z,6.2
2023-01-30T07:05:00.606Z,6.2
2023-01-30T07:10:07.709Z,6.1
2023-01-30T07:15:00.635Z,6.2
2023-01-30T07:20:00.611Z,6.2
2023-01-30T07:25:00.613Z,6.1
2023-01-30T07:30:00.576Z,6.1
2023-01-30T07:35:00.760Z,6.3
2023-01-30T07:40:00.628Z,6.2
2023-01-30T07:45:00.587Z,6.3
2023-01-30T07:50:00.669Z,6.2
2023-01-30T07:55:01.567Z,6.2
2023-01-30T08:00:00.729Z,6.4
2023-01-30T08:05:00.773Z,6.5
2023-01-30T08:10:00.608Z,6.6
2023-01-30T08:15:00.605Z,6.7
2023-01-30T08:20:00.746Z,6.7
2023-01-30T08:25:00.639Z,6.9
2023-01-30T08:30:00.670Z,6.9
2023-01-30T08:35:00.699Z,7.1
2023-01-30T08:40:00.680Z,6.9
2023-01-30T08:45:00.645Z,6.8
2023-01-30T08:50:00.604Z,6.8
2023-01-30T08:55:00.737Z,6.8
2023-01-30T09:00:00.768Z,6.8
2023-01-30T09:05:00.865Z,6.8
2023-01-30T09:10:00.597Z,6.9
2023-01-30T09:15:00.603Z,6.9
2023-01-30T09:20:00.625Z,6.9
2023-01-30T09:25:00.785Z,6.9
2023-01-30T09:30:00.649Z,7.0
2023-01-30T09:35:00.620Z,7.0
2023-01-30T09:40:00.597Z,7.1
2023-01-30T09:45:00.599Z,7.1
2023-01-30T09:50:00.644Z,7.2
2023-01-30T09:55:00.765Z,7.2
2023-01-30T10:00:00.587Z,7.3
2023-01-30T10:05:02.253Z,7.3
2023-01-30T10:10:00.625Z,7.3
2023-01-30T10:15:00.637Z,7.3
2023-01-30T10:20:00.593Z,7.3
2023-01-30T10:25:00.587Z,7.3
2023-01-30T10:30:00.633Z,7.3
2023-01-30T10:35:00.640Z,7.3
2023-01-30T10:40:00.582Z,7.3
2023-01-30T10:45:00.588Z,7.4
2023-01-30T10:50:00.675Z,7.4
2023-01-30T10:55:00.726Z,7.4
2023-01-30T11:00:00.589Z,7.5
2023-01-30T11:05:00.591Z,7.5
2023-01-30T11:10:00.678Z,7.5
2023-01-30T11:15:00.601Z,7.6
2023-01-30T11:20:00.599Z,7.7
2023-01-30T11:25:00.585Z,7.8
2023-01-30T11:30:00.592Z,7.9
2023-01-30T11:35:00.582Z,7.8
2023-01-30T11:40:00.641Z,7.8
2023-01-30T11:45:16.044Z,7.8
2023-01-30T11:50:14.746Z,7.8
2023-01-30T11:55:00.585Z,7.9
2023-01-30T12:00:00.599Z,7.9
2023-01-30T12:05:00.666Z,7.9
2023-01-30T12:10:00.607Z,7.9
2023-01-30T12:15:00.630Z,7.9
2023-01-30T12:20:00.710Z,8.0
2023-01-30T12:25:00.582Z,8.0
2023-01-30T12:30:00.640Z,8.0
2023-01-30T12:35:00.639Z,8.0
2023-01-30T12:40:01.939Z,8.1
2023-01-30T12:45:00.605Z,8.1
2023-01-30T12:50:01.907Z,8.2
2023-01-30T12:55:00.810Z,8.2
2023-01-30T13:00:00.602Z,8.1
2023-01-30T13:05:04.245Z,8.1
2023-01-30T13:10:00.594Z,8.1
2023-01-30T13:15:00.591Z,8.3
2023-01-30T13:20:00.813Z,8.4
2023-01-30T13:25:00.609Z,8.2
2023-01-30T13:30:00.626Z,8.2
2023-01-30T13:35:00.722Z,8.1
2023-01-30T13:40:00.642Z,8.0
2023-01-30T13:45:00.618Z,7.9
2023-01-30T13:50:00.662Z,8.0
2023-01-30T13:55:00.881Z,8.3
2023-01-30T14:00:00.698Z,8.1
2023-01-30T14:05:00.592Z,8.1
2023-01-30T14:10:00.619Z,8.0
2023-01-30T14:15:00.703Z,8.1
2023-01-30T14:20:00.584Z,8.0
2023-01-30T14:25:03.440Z,7.9
2023-01-30T14:30:00.707Z,7.9
2023-01-30T14:35:00.724Z,7.9
2023-01-30T14:40:00.606Z,7.9
2023-01-30T14:45:00.722Z,7.9
2023-01-30T14:50:00.587Z,7.9
2023-01-30T14:55:00.593Z,7.8
2023-01-30T15:00:16.111Z,7.8
2023-01-30T15:05:00.598Z,7.8
2023-01-30T15:10:00.635Z,7.7
2023-01-30T15:15:00.754Z,7.7
2023-01-30T15:20:00.658Z,7.7
2023-01-30T15:25:00.590Z,7.7
2023-01-30T15:30:00.734Z,7.6
2023-01-30T15:35:00.610Z,7.6
2023-01-30T15:40:00.586Z,7.6
2023-01-30T15:45:01.110Z,7.6
2023-01-30T15:50:01.072Z,7.5
2023-01-30T15:55:00.606Z,7.5
2023-01-30T16:00:00.594Z,7.4
2023-01-30T16:05:01.396Z,7.3
2023-01-30T16:10:11.412Z,7.2
2023-01-30T16:15:12.297Z,7.1
2023-01-30T16:20:00.689Z,7.1
2023-01-30T16:25:00.620Z,7.1
2023-01-30T16:30:00.596Z,7.0
2023-01-30T16:35:00.728Z,6.9
2023-01-30T16:40:00.753Z,6.7
2023-01-30T16:45:00.606Z,6.7
2023-01-30T16:50:01.199Z,6.6
2023-01-30T16:55:00.893Z,6.7
2023-01-30T17:00:00.715Z,6.6
2023-01-30T17:05:00.593Z,6.5
2023-01-30T17:10:00.760Z,6.4
2023-01-30T17:15:00.657Z,6.4
2023-01-30T17:20:00.607Z,6.3
2023-01-30T17:25:00.884Z,6.3
2023-01-30T17:30:00.719Z,6.2
2023-01-30T17:35:00.712Z,6.2
2023-01-30T17:40:02.773Z,6.1
2023-01-30T17:45:00.586Z,6.1
2023-01-30T17:50:00.720Z,6.0
2023-01-30T17:55:00.642Z,6.0
2023-01-30T18:00:00.601Z,5.9
2023-01-30T18:05:00.597Z,5.9
2023-01-30T18:10:00.599Z,5.8
2023-01-30T18:15:00.594Z,5.9
2023-01-30T18:20:00.785Z,5.8
2023-01-30T18:25:00.687Z,5.9
2023-01-30T18:30:00.595Z,5.8
2023-01-30T18:35:01.323Z,5.8
2023-01-30T18:40:00.732Z,5.7
2023-01-30T18:45:00.590Z,5.7
2023-01-30T18:50:00.628Z,5.6
2023-01-30T18:55:00.592Z,5.6
2023-01-30T19:00:00.617Z,5.5
2023-01-30T19:05:00.616Z,5.5
2023-01-30T19:10:00.674Z,5.5
2023-01-30T19:15:01.327Z,5.4
2023-01-30T19:20:00.592Z,5.3
2023-01-30T19:25:00.667Z,5.3
2023-01-30T19:30:00.680Z,5.4
2023-01-30T19:35:00.697Z,5.3
2023-01-30T19:40:00.745Z,5.3
2023-01-30T19:45:00.591Z,5.3
2023-01-30T19:50:00.594Z,5.3
2023-01-30T19:55:00.593Z,5.3
2023-01-30T20:00:00.664Z,5.3
2023-01-30T20:05:00.607Z,5.2
2023-01-30T20:10:00.668Z,5.1
2023-01-30T20:15:00.642Z,5.1
2023-01-30T20:20:00.646Z,5.2
2023-01-30T20:25:00.603Z,5.1
2023-01-30T20:30:00.637Z,5.1
2023-01-30T20:35:00.601Z,5.0
2023-01-30T20:40:00.602Z,4.9
2023-01-30T20:45:00.847Z,4.9
2023-01-30T20:50:00.665Z,4.9
2023-01-30T20:55:00.602Z,4.9
2023-01-30T21:00:00.916Z,5.0
2023-01-30T21:05:00.591Z,4.9
2023-01-30T21:10:01.040Z,4.8
2023-01-30T21:15:00.789Z,4.8
2023-01-30T21:20:01.205Z,4.8
2023-01-30T21:25:01.024Z,4.8
2023-01-30T21:30:00.720Z,4.7
2023-01-30T21:35:00.592Z,4.7
2023-01-30T21:40:00.683Z,4.6
2023-01-30T21:45:00.601Z,4.5
2023-01-30T21:50:00.642Z,4.5
2023-01-30T21:55:00.624Z,4.4
2023-01-30T22:00:00.715Z,4.4
2023-01-30T22:05:00.603Z,4.3
2023-01-30T22:10:01.433Z,4.3
2023-01-30T22:15:00.612Z,4.3
2023-01-30T22:20:00.635Z,4.4
2023-01-30T22:25:00.914Z,4.2
2023-01-30T22:30:00.686Z,4.1
2023-01-30T22:35:00.607Z,4.1
2023-01-30T22:40:00.593Z,3.9
2023-01-30T22:45:00.712Z,3.8
2023-01-30T22:50:00.754Z,3.9
2023-01-30T22:55:00.751Z,4.0
2023-01-30T23:00:00.593Z,4.1
2023-01-30T23:05:00.683Z,4.2
2023-01-30T23:10:00.678Z,4.2
2023-01-30T23:15:01.783Z,4.3
2023-01-30T23:20:00.715Z,4.3
2023-01-30T23:25:00.641Z,4.2
2023-01-30T23:30:00.602Z,4.2
2023-01-30T23:35:00.604Z,4.3
2023-01-30T23:40:00.818Z,4.2
2023-01-30T23:45:00.640Z,4.2
2023-01-30T23:50:00.722Z,4.2
2023-01-30T23:55:00.660Z,4.1
